Terminal Aerodrome Forecast
Issued by NWS Cleveland, OH

Home | Current Version | Previous Version | Text Only | Print | Product List | Glossary Off
Versions: 1 2 3 4 5 6 7 8 9 10 11 12 13 14 15 16 17 18 19 20 21 22 23 24 25 26 27

000
FTUS41 KCLE 300200 AAA
TAFCLE
TAF AMD
KCLE 300254Z 3003/3106 28007KT P6SM BKN028
      TEMPO 3004/3008 SCT028 BKN035
     FM300900 32007KT P6SM BKN028
      TEMPO 3010/3014 BKN018
     FM302000 29006KT P6SM SCT025
     FM310000 17005KT P6SM SCT050 BKN120=

USA.gov is the U.S. government's official web portal to all federal, state and local government web resources and services.